Time;durP1;ratioP1;P1;durP2;ratioP2;P2;SDS_P1;SDS_P2;PMS_P1;PMS_P2;Temp;Humidity;BMP_temperature;BMP_pressure;BME280_temperature;BME280_humidity;BME280_pressure;Samples;Min_cycle;Max_cycle;Signal;HPM_P1;HPM_P2
2022/03/27 00:00:36;;;;;;;21.07;16.80;;;14.20;91.10;;;;;;5062003;28;20232;-31
2022/03/27 00:03:05;;;;;;;21.77;16.77;;;14.20;91.10;;;;;;5066360;28;20265;-32
2022/03/27 00:05:36;;;;;;;23.37;17.53;;;14.20;91.20;;;;;;5066435;28;20203;-32
2022/03/27 00:08:03;;;;;;;23.70;17.15;;;14.10;91.20;;;;;;5067006;28;20192;-32
2022/03/27 00:11:23;;;;;;;22.77;16.30;;;14.10;91.30;;;;;;5066905;28;20211;-32
2022/03/27 00:13:23;;;;;;;22.70;16.20;;;14.10;91.30;;;;;;5065578;28;20691;-31
2022/03/27 00:15:54;;;;;;;21.92;16.38;;;14.10;91.30;;;;;;5066367;28;20678;-32
2022/03/27 00:18:25;;;;;;;21.40;15.93;;;14.00;91.70;;;;;;5067571;28;20584;-31
2022/03/27 00:20:55;;;;;;;22.27;16.00;;;14.00;91.40;;;;;;5070205;28;20211;-31
2022/03/27 00:23:25;;;;;;;19.57;15.43;;;14.00;91.40;;;;;;5068848;28;20656;-32
2022/03/27 00:25:56;;;;;;;19.00;14.80;;;14.00;91.50;;;;;;5070091;28;20196;-32
2022/03/27 00:28:31;;;;;;;21.58;15.65;;;14.00;91.30;;;;;;5067805;28;20199;-32
2022/03/27 00:31:02;;;;;;;20.33;15.27;;;14.00;91.70;;;;;;5070243;28;20232;-31
2022/03/27 00:33:31;;;;;;;21.70;15.30;;;13.90;91.50;;;;;;5063161;28;20678;-31
2022/03/27 00:35:59;;;;;;;20.83;15.43;;;13.90;91.50;;;;;;5050120;28;20303;-31
2022/03/27 00:38:26;;;;;;;22.57;16.10;;;13.90;91.60;;;;;;5063763;28;20751;-31
2022/03/27 00:40:59;;;;;;;18.02;14.32;;;13.90;91.80;;;;;;5070194;28;20214;-32
2022/03/27 00:43:30;;;;;;;18.07;14.30;;;13.90;91.70;;;;;;5067600;28;20308;-31
2022/03/27 00:45:57;;;;;;;18.10;14.52;;;13.80;91.70;;;;;;5052269;28;20207;-31
2022/03/27 00:48:27;;;;;;;18.70;14.13;;;13.80;91.90;;;;;;5069211;28;20273;-31
2022/03/27 00:50:59;;;;;;;21.02;15.57;;;13.80;91.90;;;;;;5059836;28;20869;-31
2022/03/27 00:53:26;;;;;;;19.30;14.63;;;13.80;92.10;;;;;;5049405;28;20354;-31
2022/03/27 00:55:54;;;;;;;17.85;14.02;;;13.80;92.10;;;;;;5066019;28;20219;-31
2022/03/27 00:58:26;;;;;;;19.15;14.20;;;13.80;92.00;;;;;;5068181;28;20212;-31
2022/03/27 01:01:02;;;;;;;20.60;13.23;;;13.70;91.90;;;;;;5069482;28;20203;-31
2022/03/27 01:03:32;;;;;;;17.27;14.00;;;13.70;91.90;;;;;;5068868;28;20227;-31
2022/03/27 01:06:02;;;;;;;17.77;13.52;;;13.70;91.90;;;;;;5064026;28;20303;-31
2022/03/27 01:11:21;;;;;;;20.38;14.60;;;13.60;92.10;;;;;;5070526;28;20681;-31
2022/03/27 01:13:53;;;;;;;19.08;14.40;;;13.60;92.20;;;;;;5068152;28;20253;-31
2022/03/27 01:16:43;;;;;;;21.17;14.23;;;13.60;92.20;;;;;;5069242;28;20199;-31
2022/03/27 01:19:16;;;;;;;18.73;13.77;;;13.60;92.50;;;;;;5067236;28;20242;-31
2022/03/27 01:21:46;;;;;;;18.35;13.55;;;13.50;92.20;;;;;;5067712;28;20246;-31
2022/03/27 01:24:17;;;;;;;16.63;13.07;;;13.50;91.90;;;;;;5067805;28;20223;-31
2022/03/27 01:26:46;;;;;;;17.58;13.02;;;13.50;92.10;;;;;;5067251;28;20196;-32
2022/03/27 01:29:16;;;;;;;18.75;13.40;;;13.50;92.00;;;;;;5068224;28;20767;-32
2022/03/27 01:31:44;;;;;;;18.48;13.40;;;13.50;92.20;;;;;;5066584;28;20198;-31
2022/03/27 01:34:15;;;;;;;20.30;14.57;;;13.40;92.10;;;;;;5067067;28;20298;-31
2022/03/27 01:36:42;;;;;;;17.27;13.77;;;13.40;92.10;;;;;;5068618;28;20580;-31
2022/03/27 01:39:11;;;;;;;20.23;14.00;;;13.40;92.10;;;;;;5068753;28;20306;-30
2022/03/27 01:41:40;;;;;;;17.23;13.43;;;13.40;92.20;;;;;;5061147;28;20236;-31
2022/03/27 01:44:14;;;;;;;15.63;13.35;;;13.30;92.50;;;;;;5048054;28;20228;-31
2022/03/27 01:46:44;;;;;;;16.90;13.07;;;13.30;92.30;;;;;;5064874;28;20227;-31
2022/03/27 01:49:15;;;;;;;16.50;12.85;;;13.30;92.20;;;;;;5067801;28;20200;-31
2022/03/27 01:51:46;;;;;;;18.08;13.60;;;13.30;92.20;;;;;;5067333;28;20215;-31
2022/03/27 01:54:16;;;;;;;17.23;13.38;;;13.20;92.10;;;;;;5068673;28;20244;-32
2022/03/27 01:56:50;;;;;;;16.92;13.32;;;13.20;92.20;;;;;;5068352;28;20207;-31
2022/03/27 01:59:21;;;;;;;17.80;13.45;;;13.20;92.20;;;;;;5067322;28;20238;-31
2022/03/27 02:01:53;;;;;;;17.38;13.40;;;13.10;92.20;;;;;;5068161;28;20204;-31
2022/03/27 02:04:23;;;;;;;15.90;12.60;;;13.10;92.20;;;;;;5048421;28;20232;-31
2022/03/27 02:06:50;;;;;;;17.20;13.75;;;13.10;92.10;;;;;;5048377;28;20749;-31
2022/03/27 02:09:17;;;;;;;18.73;13.43;;;13.00;92.30;;;;;;5046851;28;20196;-32
2022/03/27 02:11:45;;;;;;;17.25;13.25;;;13.00;92.30;;;;;;5053098;28;20211;-31
2022/03/27 02:14:17;;;;;;;16.52;13.63;;;12.90;92.30;;;;;;5054206;28;20208;-31
2022/03/27 02:16:47;;;;;;;18.53;13.73;;;12.90;92.30;;;;;;5064750;28;20199;-32
2022/03/27 02:19:14;;;;;;;18.30;13.35;;;12.90;92.30;;;;;;5065745;28;20224;-31
2022/03/27 02:21:42;;;;;;;17.10;13.33;;;12.80;92.30;;;;;;5068086;28;20685;-31
2022/03/27 02:24:10;;;;;;;19.83;14.50;;;12.80;92.30;;;;;;5067912;28;20322;-31
2022/03/27 02:26:45;;;;;;;15.93;12.40;;;12.80;92.40;;;;;;5067970;28;20325;-31
2022/03/27 02:29:19;;;;;;;17.73;12.48;;;12.80;92.50;;;;;;5049920;28;20196;-31
2022/03/27 02:31:47;;;;;;;17.27;12.33;;;12.70;92.30;;;;;;5065954;28;20677;-31
2022/03/27 02:34:15;;;;;;;17.47;12.90;;;12.70;92.40;;;;;;5047398;28;20203;-31
2022/03/27 02:36:44;;;;;;;17.20;13.10;;;12.70;92.60;;;;;;5054407;28;20230;-31
2022/03/27 02:39:16;;;;;;;18.10;12.47;;;12.70;92.70;;;;;;5066330;28;20195;-31
2022/03/27 02:41:46;;;;;;;15.33;12.87;;;12.60;92.50;;;;;;5066953;28;20218;-31
2022/03/27 02:44:16;;;;;;;17.27;12.77;;;12.60;92.60;;;;;;5067469;28;20215;-30
2022/03/27 02:46:45;;;;;;;16.47;12.33;;;12.60;92.60;;;;;;5068040;28;20624;-31
2022/03/27 02:49:12;;;;;;;18.03;12.27;;;12.60;92.60;;;;;;5063107;28;20199;-31
2022/03/27 02:51:44;;;;;;;15.00;11.57;;;12.60;92.60;;;;;;5047785;28;20675;-31
2022/03/27 02:54:13;;;;;;;15.83;12.27;;;12.50;92.50;;;;;;5059827;28;20286;-31
2022/03/27 02:56:40;;;;;;;18.40;12.17;;;12.50;92.60;;;;;;5067601;28;20579;-31
2022/03/27 02:59:10;;;;;;;14.07;11.50;;;12.50;92.70;;;;;;5067337;28;20596;-32
2022/03/27 03:01:38;;;;;;;15.67;12.03;;;12.50;92.60;;;;;;5067619;28;20257;-31
2022/03/27 03:04:10;;;;;;;15.37;12.00;;;12.40;92.60;;;;;;5065685;28;20306;-31
2022/03/27 03:06:37;;;;;;;17.63;12.40;;;12.40;92.70;;;;;;5067587;28;20290;-31
2022/03/27 03:09:04;;;;;;;16.83;12.30;;;12.40;92.70;;;;;;5066035;28;20298;-31
2022/03/27 03:11:34;;;;;;;15.00;11.73;;;12.30;92.70;;;;;;5065667;28;20211;-31
2022/03/27 03:14:02;;;;;;;16.73;11.87;;;12.30;92.70;;;;;;5066694;28;20192;-31
2022/03/27 03:16:50;;;;;;;15.50;12.27;;;12.30;92.80;;;;;;5065494;28;20257;-31
2022/03/27 03:19:17;;;;;;;19.67;13.40;;;12.30;92.80;;;;;;5058692;28;20232;-31
2022/03/27 03:21:44;;;;;;;17.40;12.00;;;12.30;92.80;;;;;;5047504;28;20200;-31
2022/03/27 03:24:16;;;;;;;16.43;11.90;;;12.20;93.10;;;;;;5059742;28;20317;-32
2022/03/27 03:26:47;;;;;;;14.93;12.17;;;12.20;92.80;;;;;;5067082;28;20750;-31
2022/03/27 03:29:14;;;;;;;15.17;12.27;;;12.20;93.00;;;;;;5065172;28;20614;-31
2022/03/27 03:31:42;;;;;;;13.77;11.67;;;12.20;92.90;;;;;;5067336;28;20200;-31
2022/03/27 03:34:09;;;;;;;14.33;12.00;;;12.10;92.90;;;;;;5066662;28;20678;-32
2022/03/27 03:36:41;;;;;;;14.63;12.10;;;12.10;92.90;;;;;;5067436;28;20220;-31
2022/03/27 03:39:08;;;;;;;17.20;12.57;;;12.10;92.90;;;;;;5067396;28;20582;-32
2022/03/27 03:41:36;;;;;;;15.37;12.00;;;12.10;93.00;;;;;;5067551;28;20199;-31
2022/03/27 03:44:23;;;;;;;18.50;11.50;;;12.00;93.00;;;;;;5066267;28;20242;-31
2022/03/27 03:46:53;;;;;;;15.27;11.67;;;12.00;93.00;;;;;;5065592;28;20823;-31
2022/03/27 03:49:21;;;;;;;15.53;11.77;;;12.00;93.50;;;;;;5065204;28;20210;-30
2022/03/27 03:51:48;;;;;;;17.83;12.23;;;11.90;93.10;;;;;;5067126;28;20227;-31
2022/03/27 03:54:15;;;;;;;15.60;12.00;;;11.90;93.10;;;;;;5069044;28;20246;-31
2022/03/27 03:56:46;;;;;;;15.53;11.70;;;11.90;93.00;;;;;;5069861;28;20218;-31
2022/03/27 03:59:13;;;;;;;15.40;12.27;;;11.90;93.40;;;;;;5070685;28;20234;-31
2022/03/27 04:01:57;;;;;;;15.10;11.97;;;11.90;93.10;;;;;;5069408;28;20226;-31
2022/03/27 04:04:28;;;;;;;14.77;11.43;;;11.80;93.10;;;;;;5068913;28;20318;-31
2022/03/27 04:06:58;;;;;;;14.73;11.77;;;11.80;93.10;;;;;;5069401;28;20645;-31
2022/03/27 04:09:27;;;;;;;15.50;11.50;;;11.70;93.10;;;;;;5070489;28;20199;-31
2022/03/27 04:11:55;;;;;;;17.63;12.33;;;11.70;93.50;;;;;;5068498;28;20211;-31
2022/03/27 04:14:25;;;;;;;16.67;12.37;;;11.70;93.20;;;;;;5069107;28;20208;-31
2022/03/27 04:16:53;;;;;;;19.13;12.50;;;11.60;93.20;;;;;;5069011;28;20211;-30
2022/03/27 04:19:22;;;;;;;16.57;11.97;;;11.60;93.20;;;;;;5069381;28;20578;-31
2022/03/27 04:21:52;;;;;;;16.77;11.57;;;11.60;93.20;;;;;;5070335;28;20216;-31
2022/03/27 04:24:25;;;;;;;15.70;11.80;;;11.60;93.30;;;;;;5070539;28;20231;-31
2022/03/27 04:26:52;;;;;;;15.13;11.13;;;11.60;93.20;;;;;;5070247;28;20674;-31
2022/03/27 04:29:23;;;;;;;16.40;11.07;;;11.50;93.40;;;;;;5063855;28;20242;-31
2022/03/27 04:31:52;;;;;;;16.87;11.47;;;11.50;93.30;;;;;;5085428;28;20215;-31
2022/03/27 04:34:21;;;;;;;13.03;10.23;;;11.50;93.40;;;;;;5069895;28;20199;-31
2022/03/27 04:36:49;;;;;;;15.03;11.20;;;11.50;93.30;;;;;;5070166;28;20674;-30
2022/03/27 04:39:16;;;;;;;15.40;10.83;;;11.50;93.40;;;;;;5069838;28;20306;-32
2022/03/27 04:41:48;;;;;;;13.83;10.60;;;11.50;93.40;;;;;;5069639;28;20192;-32
2022/03/27 04:44:15;;;;;;;14.10;10.83;;;11.50;93.40;;;;;;5069113;28;20694;-32
2022/03/27 04:46:45;;;;;;;15.53;11.43;;;11.50;93.50;;;;;;5068620;28;20206;-31
2022/03/27 04:49:13;;;;;;;15.67;10.87;;;11.50;93.50;;;;;;5057222;28;20231;-31
2022/03/27 04:51:43;;;;;;;13.97;11.37;;;11.50;93.40;;;;;;5050713;28;20293;-31
2022/03/27 04:54:10;;;;;;;14.07;11.03;;;11.40;93.50;;;;;;5067577;28;20257;-31
2022/03/27 04:56:40;;;;;;;16.10;11.23;;;11.40;93.50;;;;;;5069689;28;20701;-31
2022/03/27 04:59:17;;;;;;;16.13;10.80;;;11.40;93.50;;;;;;5067282;28;20230;-31
2022/03/27 05:01:44;;;;;;;14.23;11.23;;;11.40;93.50;;;;;;5068381;28;20257;-31
2022/03/27 05:04:14;;;;;;;15.70;10.80;;;11.40;93.50;;;;;;5068715;28;20231;-31
2022/03/27 05:06:41;;;;;;;16.93;10.90;;;11.40;93.60;;;;;;5068938;28;20353;-31
2022/03/27 05:09:30;;;;;;;15.30;11.00;;;11.30;93.60;;;;;;5069040;28;20703;-31
2022/03/27 05:11:57;;;;;;;14.43;11.33;;;11.30;93.80;;;;;;5068722;28;20211;-31
2022/03/27 05:14:29;;;;;;;16.47;11.33;;;11.30;94.00;;;;;;5068969;28;20219;-31
2022/03/27 05:16:56;;;;;;;12.70;10.47;;;11.30;93.80;;;;;;5069422;28;20298;-32
2022/03/27 05:19:23;;;;;;;14.20;11.10;;;11.30;93.80;;;;;;5068922;28;20238;-31
2022/03/27 05:21:53;;;;;;;15.70;10.63;;;11.20;93.80;;;;;;5068586;28;20210;-36
2022/03/27 05:24:28;;;;;;;16.97;10.83;;;11.20;93.80;;;;;;5069042;28;20239;-36
2022/03/27 05:27:00;;;;;;;18.50;12.37;;;11.20;93.80;;;;;;5068680;28;20257;-37
2022/03/27 05:29:29;;;;;;;16.90;11.80;;;11.20;94.10;;;;;;5067252;28;20200;-37
2022/03/27 05:31:58;;;;;;;15.80;11.73;;;11.20;94.30;;;;;;5067788;28;20603;-36
2022/03/27 05:34:25;;;;;;;15.50;11.17;;;11.20;94.10;;;;;;5067176;28;20214;-37
2022/03/27 05:36:55;;;;;;;14.47;10.77;;;11.10;94.30;;;;;;5069054;28;20235;-37
2022/03/27 05:39:23;;;;;;;15.60;10.70;;;11.10;94.00;;;;;;5066485;28;20225;-38
2022/03/27 05:41:50;;;;;;;15.97;11.70;;;11.10;94.10;;;;;;5057127;28;20211;-37
2022/03/27 05:44:25;;;;;;;14.40;11.13;;;11.10;93.90;;;;;;5066595;28;20251;-38
2022/03/27 05:46:52;;;;;;;14.03;10.27;;;11.10;94.10;;;;;;5067189;28;20205;-37
2022/03/27 05:49:19;;;;;;;15.90;11.50;;;11.10;94.00;;;;;;5068278;28;20622;-37
2022/03/27 05:51:46;;;;;;;15.13;11.40;;;11.10;94.20;;;;;;5066977;28;20239;-37
2022/03/27 05:54:16;;;;;;;15.77;11.73;;;11.10;94.20;;;;;;5048462;28;20263;-37
2022/03/27 05:56:45;;;;;;;15.53;11.27;;;11.10;94.60;;;;;;5057430;28;20239;-37
2022/03/27 05:59:15;;;;;;;14.87;10.70;;;11.10;94.30;;;;;;5068234;28;20207;-38
2022/03/27 06:01:45;;;;;;;17.50;10.40;;;11.10;94.60;;;;;;5068425;28;20251;-37
2022/03/27 06:04:20;;;;;;;14.87;11.70;;;11.00;94.60;;;;;;5066607;28;20285;-32
2022/03/27 06:06:47;;;;;;;17.17;11.90;;;11.10;94.70;;;;;;5068182;28;20240;-32
2022/03/27 06:09:20;;;;;;;16.87;12.03;;;11.10;94.40;;;;;;5068329;28;20219;-32
2022/03/27 06:11:50;;;;;;;18.90;12.50;;;11.10;94.30;;;;;;5067776;28;20273;-32
2022/03/27 06:14:20;;;;;;;20.63;14.15;;;11.10;94.60;;;;;;5054784;28;20587;-32
2022/03/27 06:16:52;;;;;;;20.63;15.47;;;11.10;94.70;;;;;;5048204;28;20210;-33
2022/03/27 06:19:19;;;;;;;22.77;14.57;;;11.10;94.90;;;;;;5047806;28;20294;-32
2022/03/27 06:21:53;;;;;;;23.43;14.43;;;11.10;94.50;;;;;;5048207;28;20204;-33
2022/03/27 06:24:23;;;;;;;23.73;15.47;;;11.10;94.80;;;;;;5047729;28;20307;-32
2022/03/27 06:26:50;;;;;;;26.40;15.87;;;11.10;94.50;;;;;;5047847;28;20522;-32
2022/03/27 06:29:18;;;;;;;26.40;16.83;;;11.10;95.40;;;;;;5047660;28;20200;-32
2022/03/27 06:31:48;;;;;;;29.60;16.67;;;11.10;95.00;;;;;;5048844;28;20279;-32
2022/03/27 06:34:15;;;;;;;29.10;18.13;;;11.10;94.80;;;;;;5051799;28;20561;-32
2022/03/27 06:36:45;;;;;;;29.87;18.83;;;11.10;94.80;;;;;;5067639;28;20622;-32
2022/03/27 06:39:15;;;;;;;30.90;18.43;;;11.10;94.80;;;;;;5067648;28;20693;-32
2022/03/27 06:41:42;;;;;;;30.17;18.38;;;11.10;95.00;;;;;;5063517;28;20216;-32
2022/03/27 06:44:16;;;;;;;35.30;20.10;;;11.10;95.00;;;;;;5047392;28;20220;-32
2022/03/27 06:46:45;;;;;;;30.23;19.40;;;11.10;94.90;;;;;;5048399;28;20495;-32
2022/03/27 06:49:13;;;;;;;32.20;21.20;;;11.20;94.90;;;;;;5063120;28;20231;-32
2022/03/27 06:51:42;;;;;;;30.63;19.50;;;11.10;95.10;;;;;;5067001;28;20203;-32
2022/03/27 06:54:09;;;;;;;34.20;20.93;;;11.20;95.10;;;;;;5047467;28;20384;-32
2022/03/27 06:56:42;;;;;;;38.53;21.83;;;11.20;95.10;;;;;;5047772;28;20319;-32
2022/03/27 06:59:09;;;;;;;37.43;22.03;;;11.20;95.60;;;;;;5046880;28;20196;-32
2022/03/27 07:04:27;;;;;;;38.40;22.43;;;11.20;95.40;;;;;;5051436;28;20227;-33
2022/03/27 07:06:54;;;;;;;39.83;23.23;;;11.20;95.70;;;;;;5067510;28;20229;-32
2022/03/27 07:09:26;;;;;;;38.23;21.77;;;11.20;95.80;;;;;;5066094;28;20239;-32
2022/03/27 07:11:57;;;;;;;37.33;21.53;;;11.20;95.50;;;;;;5067055;28;20275;-32
2022/03/27 07:14:25;;;;;;;36.70;21.73;;;11.20;95.40;;;;;;5066700;28;20666;-32
2022/03/27 07:16:54;;;;;;;42.73;22.40;;;11.20;95.40;;;;;;5067280;28;20219;-32
2022/03/27 07:19:22;;;;;;;39.43;23.60;;;11.30;95.50;;;;;;5067308;28;20215;-32
2022/03/27 07:21:49;;;;;;;44.50;25.27;;;11.30;95.40;;;;;;5058020;28;20208;-32
2022/03/27 07:24:16;;;;;;;42.03;23.77;;;11.40;95.70;;;;;;5047209;28;20238;-33
2022/03/27 07:26:48;;;;;;;44.30;23.93;;;11.40;95.60;;;;;;5063468;28;20737;-32
2022/03/27 07:29:15;;;;;;;45.00;23.93;;;11.40;95.70;;;;;;5070989;28;20311;-38
2022/03/27 07:31:42;;;;;;;46.20;26.13;;;11.30;95.50;;;;;;5071477;28;20266;-38
2022/03/27 07:34:13;;;;;;;44.60;25.77;;;11.40;95.60;;;;;;5069655;28;20684;-38
2022/03/27 07:36:42;;;;;;;47.22;25.92;;;11.40;95.90;;;;;;5071352;28;20681;-38
2022/03/27 07:39:12;;;;;;;44.03;25.77;;;11.40;95.90;;;;;;5068861;28;20199;-38
2022/03/27 07:41:39;;;;;;;43.23;25.47;;;11.40;95.80;;;;;;5071327;28;20203;-38
2022/03/27 07:44:09;;;;;;;46.20;27.53;;;11.50;95.80;;;;;;5070267;28;20254;-38
2022/03/27 07:46:36;;;;;;;44.40;24.63;;;11.50;96.10;;;;;;5071297;28;20277;-38
2022/03/27 07:49:06;;;;;;;50.10;26.65;;;11.50;95.90;;;;;;5070373;28;20208;-38
2022/03/27 07:51:39;;;;;;;50.13;27.93;;;11.50;96.20;;;;;;5063492;28;20674;-38
2022/03/27 07:54:10;;;;;;;43.03;26.87;;;11.50;96.30;;;;;;5050666;28;20236;-38
2022/03/27 07:56:42;;;;;;;51.53;28.33;;;11.60;96.20;;;;;;5052439;28;20607;-38
2022/03/27 07:59:12;;;;;;;51.53;28.20;;;11.60;96.30;;;;;;5063058;28;20223;-38
2022/03/27 08:01:43;;;;;;;45.10;26.83;;;11.70;96.30;;;;;;5070708;28;20208;-38
2022/03/27 08:04:11;;;;;;;43.07;25.53;;;11.70;96.30;;;;;;5070080;28;20235;-38
2022/03/27 08:06:38;;;;;;;41.23;26.13;;;11.70;96.40;;;;;;5070642;28;20204;-38
2022/03/27 08:09:08;;;;;;;48.28;26.55;;;11.70;96.40;;;;;;5070497;28;20199;-38
2022/03/27 08:11:43;;;;;;;47.93;27.10;;;11.70;96.80;;;;;;5069059;28;20211;-38
2022/03/27 08:14:13;;;;;;;44.90;26.07;;;11.70;96.80;;;;;;5049928;28;20216;-38
2022/03/27 08:16:40;;;;;;;44.63;26.90;;;11.70;96.60;;;;;;5058057;28;20286;-38
2022/03/27 08:19:14;;;;;;;46.55;26.55;;;11.70;97.00;;;;;;5069826;28;20239;-38
2022/03/27 08:21:42;;;;;;;41.67;26.17;;;11.70;96.80;;;;;;5070465;28;20306;-38
2022/03/27 08:24:14;;;;;;;43.40;25.73;;;11.70;96.60;;;;;;5070192;28;20226;-38
2022/03/27 08:26:57;;;;;;;46.47;26.27;;;11.70;96.70;;;;;;5070311;28;20298;-39
2022/03/27 08:29:32;;;;;;;46.45;27.13;;;11.70;96.50;;;;;;5063332;28;20212;-39
2022/03/27 08:32:01;;;;;;;47.67;26.47;;;11.70;96.70;;;;;;5050158;28;20196;-39
2022/03/27 08:34:33;;;;;;;48.03;27.03;;;11.80;96.70;;;;;;5064809;28;20284;-38
2022/03/27 08:37:07;;;;;;;49.90;27.33;;;11.80;96.70;;;;;;5068779;28;20747;-38
2022/03/27 08:39:38;;;;;;;49.50;27.07;;;11.90;96.70;;;;;;5068904;28;20202;-38
2022/03/27 08:42:08;;;;;;;47.80;28.30;;;11.90;96.80;;;;;;5069614;28;20214;-38
2022/03/27 08:44:40;;;;;;;48.30;26.67;;;11.90;96.80;;;;;;5069520;28;20223;-38
2022/03/27 08:47:24;;;;;;;48.42;26.85;;;11.90;96.90;;;;;;5058020;28;20265;-38
2022/03/27 08:49:59;;;;;;;46.97;27.30;;;11.90;97.70;;;;;;5050298;28;20228;-38
2022/03/27 08:52:39;;;;;;;49.87;27.03;;;11.90;97.30;;;;;;5055349;28;20741;-39
2022/03/27 08:55:32;;;;;;;45.92;26.65;;;11.90;96.90;;;;;;5049400;28;20259;-38
2022/03/27 08:58:01;;;;;;;50.42;28.63;;;12.00;97.60;;;;;;5049522;28;20277;-38
2022/03/27 09:00:31;;;;;;;53.33;28.40;;;12.00;97.20;;;;;;5049377;28;20202;-38
2022/03/27 09:03:05;;;;;;;48.13;27.97;;;12.00;97.10;;;;;;5051735;28;20238;-38
2022/03/27 09:05:42;;;;;;;57.63;28.33;;;12.00;97.10;;;;;;5060895;28;20235;-38
2022/03/27 09:08:13;;;;;;;49.13;27.30;;;12.00;97.60;;;;;;5069348;28;20290;-38
2022/03/27 09:10:40;;;;;;;49.40;27.70;;;12.00;97.50;;;;;;5069914;28;20266;-38
2022/03/27 09:13:13;;;;;;;48.97;26.60;;;12.00;97.50;;;;;;5068461;28;20623;-38
2022/03/27 09:15:43;;;;;;;50.60;28.00;;;12.10;97.60;;;;;;5069070;28;20690;-38
2022/03/27 09:18:14;;;;;;;48.13;28.67;;;12.10;97.30;;;;;;5069539;28;20199;-38
2022/03/27 09:20:53;;;;;;;51.50;28.40;;;12.10;97.60;;;;;;5068539;28;20199;-38
2022/03/27 09:23:27;;;;;;;52.53;28.37;;;12.20;97.50;;;;;;5069109;28;20215;-38
2022/03/27 09:26:05;;;;;;;49.00;27.73;;;12.20;97.80;;;;;;5069105;28;20626;-38
2022/03/27 09:28:46;;;;;;;46.33;27.73;;;12.20;97.70;;;;;;5068540;28;20195;-38
2022/03/27 09:31:13;;;;;;;49.10;27.77;;;12.20;97.60;;;;;;5069802;28;20286;-32
2022/03/27 09:33:47;;;;;;;54.00;29.42;;;12.30;97.50;;;;;;5068370;28;20218;-32
2022/03/27 09:36:19;;;;;;;57.33;29.17;;;12.30;97.60;;;;;;5069088;28;20238;-32
2022/03/27 09:39:08;;;;;;;51.30;26.50;;;12.30;97.70;;;;;;5051550;28;20212;-32
2022/03/27 09:42:00;;;;;;;47.08;26.88;;;12.40;97.80;;;;;;5056492;28;20204;-32
2022/03/27 09:44:36;;;;;;;47.80;26.80;;;12.40;98.10;;;;;;5066790;28;20243;-32
2022/03/27 09:47:06;;;;;;;51.35;27.55;;;12.40;97.70;;;;;;5068890;28;20226;-32
2022/03/27 09:49:34;;;;;;;44.38;25.98;;;12.40;97.90;;;;;;5066684;28;20249;-38
2022/03/27 09:52:15;;;;;;;51.95;27.65;;;12.50;97.70;;;;;;5049548;28;20273;-38
2022/03/27 09:55:00;;;;;;;47.70;25.97;;;12.50;98.00;;;;;;5056630;28;20740;-38
2022/03/27 09:57:31;;;;;;;52.47;27.90;;;12.60;97.90;;;;;;5063875;28;20693;-38
2022/03/27 10:00:23;;;;;;;48.60;26.05;;;12.50;97.70;;;;;;5055678;28;20654;-39
2022/03/27 10:02:53;;;;;;;49.38;27.48;;;12.60;97.90;;;;;;5052082;28;20246;-39
2022/03/27 10:05:24;;;;;;;45.85;26.13;;;12.60;97.80;;;;;;5082961;28;20313;-39
2022/03/27 10:07:56;;;;;;;45.35;26.83;;;12.70;97.90;;;;;;5060523;28;20767;-32
2022/03/27 10:10:26;;;;;;;46.30;27.52;;;12.80;98.00;;;;;;5067079;28;20229;-32
2022/03/27 10:12:55;;;;;;;46.75;26.67;;;12.80;98.00;;;;;;5052674;28;20319;-32
2022/03/27 10:15:29;;;;;;;57.72;30.77;;;12.80;98.00;;;;;;5053275;28;20230;-39
2022/03/27 10:18:20;;;;;;;49.50;27.05;;;12.90;98.40;;;;;;5057486;28;20301;-39
2022/03/27 10:20:54;;;;;;;46.97;27.17;;;12.90;98.20;;;;;;5065130;28;20215;-39
2022/03/27 10:23:26;;;;;;;49.90;27.15;;;12.90;98.10;;;;;;5064946;28;20217;-39
2022/03/27 10:25:58;;;;;;;48.38;28.60;;;13.00;98.20;;;;;;5056981;28;20269;-39
2022/03/27 10:28:27;;;;;;;48.37;27.07;;;13.00;98.30;;;;;;5050048;28;20200;-35
2022/03/27 10:30:54;;;;;;;51.13;27.77;;;13.10;98.20;;;;;;5058546;28;20200;-35
2022/03/27 10:33:30;;;;;;;58.27;31.00;;;13.10;98.30;;;;;;5061580;28;20223;-35
2022/03/27 10:36:08;;;;;;;51.72;29.50;;;13.10;98.40;;;;;;5050449;28;20216;-35
2022/03/27 10:38:46;;;;;;;58.88;31.33;;;13.20;98.30;;;;;;5059183;28;20265;-35
2022/03/27 10:41:32;;;;;;;52.70;29.80;;;13.20;98.30;;;;;;5059977;28;20227;-35
2022/03/27 10:44:33;;;;;;;51.92;30.02;;;13.20;98.40;;;;;;5048697;28;20204;-35
2022/03/27 10:47:21;;;;;;;56.25;32.78;;;13.20;98.30;;;;;;5055712;28;20207;-35
2022/03/27 10:50:06;;;;;;;58.50;32.07;;;13.30;98.50;;;;;;5060352;28;20335;-35
2022/03/27 10:53:00;;;;;;;56.13;32.65;;;13.30;98.80;;;;;;5067628;28;20231;-35
2022/03/27 10:55:57;;;;;;;66.20;35.15;;;13.30;98.50;;;;;;5064053;28;20211;-35
2022/03/27 10:58:38;;;;;;;61.03;33.40;;;13.30;98.60;;;;;;5057154;28;20249;-35
2022/03/27 11:01:12;;;;;;;57.37;32.17;;;13.40;98.70;;;;;;5057601;28;20670;-35
2022/03/27 11:03:48;;;;;;;57.57;32.43;;;13.40;98.50;;;;;;5064302;28;20203;-35
2022/03/27 11:06:23;;;;;;;57.93;32.50;;;13.40;98.60;;;;;;5062730;28;20326;-35
2022/03/27 11:08:51;;;;;;;56.63;30.52;;;13.50;98.70;;;;;;5066718;28;20207;-35
2022/03/27 11:11:36;;;;;;;52.67;30.83;;;13.50;98.60;;;;;;5060478;28;20200;-35
2022/03/27 11:14:05;;;;;;;56.88;31.58;;;13.60;98.80;;;;;;5053620;28;20261;-35
2022/03/27 11:16:36;;;;;;;51.97;29.85;;;13.60;98.70;;;;;;5063832;28;20223;-35
2022/03/27 11:19:06;;;;;;;57.45;32.05;;;13.70;98.70;;;;;;5055698;28;20298;-35
2022/03/27 11:21:48;;;;;;;50.45;29.40;;;13.70;98.90;;;;;;5058850;28;20236;-35
2022/03/27 11:24:20;;;;;;;48.70;28.30;;;13.70;98.90;;;;;;5059541;28;20201;-35
2022/03/27 11:26:50;;;;;;;42.53;26.55;;;13.70;98.90;;;;;;5053883;28;20322;-35
2022/03/27 11:29:21;;;;;;;48.58;28.08;;;13.70;98.70;;;;;;5064721;28;20195;-35
2022/03/27 11:32:10;;;;;;;51.28;28.98;;;13.80;98.90;;;;;;5054050;28;20247;-35
2022/03/27 11:35:00;;;;;;;45.72;26.63;;;13.80;99.00;;;;;;5060990;28;20566;-35
2022/03/27 11:37:28;;;;;;;48.78;28.83;;;13.80;98.90;;;;;;5058008;28;20227;-35
2022/03/27 11:39:59;;;;;;;47.50;27.85;;;13.80;98.90;;;;;;5065699;28;20254;-35
2022/03/27 11:42:37;;;;;;;43.13;25.42;;;13.90;98.90;;;;;;5051121;28;20555;-35
2022/03/27 11:45:21;;;;;;;46.73;27.13;;;13.90;99.00;;;;;;5056569;28;20753;-36
2022/03/27 11:47:54;;;;;;;49.38;28.48;;;13.90;99.20;;;;;;5045349;28;20257;-35
2022/03/27 11:50:24;;;;;;;48.00;28.55;;;13.90;99.20;;;;;;5046650;28;20192;-35
2022/03/27 11:52:59;;;;;;;50.92;31.02;;;13.90;99.20;;;;;;5065199;28;20196;-35
2022/03/27 11:55:30;;;;;;;48.70;30.77;;;13.90;99.20;;;;;;5066628;28;20379;-35
2022/03/27 11:58:03;;;;;;;49.92;29.95;;;14.00;99.10;;;;;;5066752;28;20679;-35
2022/03/27 12:00:42;;;;;;;49.78;30.23;;;13.90;99.10;;;;;;5066124;28;20645;-35
2022/03/27 12:03:19;;;;;;;49.42;29.73;;;14.00;99.30;;;;;;5057499;28;20203;-35
2022/03/27 12:05:48;;;;;;;46.35;29.00;;;14.00;99.30;;;;;;5065474;28;20223;-35
2022/03/27 12:08:19;;;;;;;44.47;27.90;;;14.00;99.20;;;;;;5059859;28;20231;-35
2022/03/27 12:10:54;;;;;;;42.08;26.17;;;14.00;99.20;;;;;;5055619;28;20223;-35
2022/03/27 12:13:27;;;;;;;41.00;26.70;;;14.00;99.10;;;;;;5065760;28;20195;-35
2022/03/27 12:15:55;;;;;;;40.17;24.92;;;14.10;99.10;;;;;;5069504;28;20588;-35
2022/03/27 12:18:35;;;;;;;37.88;24.90;;;14.10;99.10;;;;;;5067240;28;20599;-35
2022/03/27 12:21:12;;;;;;;41.95;26.52;;;14.20;99.40;;;;;;5070475;28;20206;-35
2022/03/27 12:23:50;;;;;;;42.03;26.83;;;14.20;99.80;;;;;;5065283;28;20670;-35
2022/03/27 12:32:25;;;;;;;44.78;28.45;;;14.30;99.50;;;;;;5064685;28;20223;-35
2022/03/27 12:34:55;;;;;;;42.72;28.27;;;14.30;99.90;;;;;;5061848;28;20204;-34
2022/03/27 12:37:26;;;;;;;41.47;27.35;;;14.30;99.50;;;;;;5051315;28;20219;-35
2022/03/27 12:39:56;;;;;;;41.03;25.45;;;14.40;99.60;;;;;;5062165;28;20189;-34
2022/03/27 12:42:43;;;;;;;36.83;24.20;;;14.40;99.50;;;;;;5064551;28;20288;-35
2022/03/27 12:45:17;;;;;;;38.15;26.45;;;14.50;99.50;;;;;;5061949;28;20598;-34
2022/03/27 12:47:46;;;;;;;39.38;26.67;;;14.60;99.70;;;;;;5061933;28;20199;-34
2022/03/27 12:50:31;;;;;;;37.92;25.75;;;14.60;99.70;;;;;;5055914;28;20200;-35
2022/03/27 12:53:04;;;;;;;38.40;26.02;;;14.70;99.80;;;;;;5066374;28;20741;-34
2022/03/27 12:55:54;;;;;;;35.38;24.40;;;14.70;99.70;;;;;;5069050;28;20273;-34
2022/03/27 12:58:33;;;;;;;36.75;24.90;;;14.80;99.70;;;;;;5070396;28;20237;-34
2022/03/27 13:01:11;;;;;;;37.03;25.75;;;14.90;99.80;;;;;;5064406;28;20199;-30
2022/03/27 13:03:40;;;;;;;35.90;24.23;;;14.90;99.80;;;;;;5061749;28;20223;-30